Time;durP1;ratioP1;P1;durP2;ratioP2;P2;SDS_P1;SDS_P2;PMS_P1;PMS_P2;Temp;Humidity;BMP_temperature;BMP_pressure;BME280_temperature;BME280_humidity;BME280_pressure;Samples;Min_cycle;Max_cycle;Signal;HPM_P1;HPM_P2
2024/01/24 00:01:24;;;;;;;3.40;1.65;;;13.60;99.90;;;;;;5035339;28;20037;-72
2024/01/24 00:03:50;;;;;;;4.90;1.55;;;13.60;99.90;;;;;;5031572;28;20030;-72
2024/01/24 00:06:15;;;;;;;3.70;1.20;;;13.60;99.90;;;;;;5030627;28;20064;-73
2024/01/24 00:08:41;;;;;;;5.03;1.60;;;13.60;99.90;;;;;;5026080;28;20026;-73
2024/01/24 00:11:07;;;;;;;5.90;1.88;;;13.70;99.90;;;;;;5026108;28;20331;-73
2024/01/24 00:13:33;;;;;;;4.13;1.65;;;13.60;99.90;;;;;;5030326;28;20160;-73
2024/01/24 00:15:58;;;;;;;2.70;1.30;;;13.70;99.90;;;;;;5026257;28;20072;-73
2024/01/24 00:18:24;;;;;;;3.22;1.55;;;13.60;99.90;;;;;;5029731;28;20478;-73
2024/01/24 00:20:51;;;;;;;4.85;1.73;;;13.60;99.90;;;;;;5030511;28;20022;-74
2024/01/24 00:23:16;;;;;;;5.88;1.75;;;13.60;99.90;;;;;;5032461;28;20031;-73
2024/01/24 00:25:42;;;;;;;6.35;1.40;;;13.70;99.90;;;;;;5028143;28;20100;-72
2024/01/24 00:28:08;;;;;;;4.18;1.50;;;13.70;99.90;;;;;;5027424;28;21913;-73
2024/01/24 00:30:33;;;;;;;3.05;1.33;;;13.80;99.90;;;;;;5022443;28;20048;-72
2024/01/24 00:33:01;;;;;;;2.90;1.50;;;13.80;99.90;;;;;;5040789;28;20042;-73
2024/01/24 00:35:26;;;;;;;3.63;1.52;;;13.70;99.90;;;;;;5030544;28;20014;-73
2024/01/24 00:37:52;;;;;;;2.95;1.30;;;13.70;99.90;;;;;;5029862;28;20087;-73
2024/01/24 00:40:18;;;;;;;3.58;1.50;;;13.80;99.90;;;;;;5029316;28;20447;-73
2024/01/24 00:42:44;;;;;;;4.65;1.40;;;13.90;99.90;;;;;;5017216;28;20378;-72
2024/01/24 00:45:13;;;;;;;6.32;1.42;;;13.80;99.90;;;;;;5030210;28;20060;-72
2024/01/24 00:47:39;;;;;;;4.50;1.23;;;13.80;99.90;;;;;;5030980;28;20028;-72
2024/01/24 00:50:06;;;;;;;2.60;0.98;;;13.90;99.90;;;;;;5030700;28;20087;-73
2024/01/24 00:52:32;;;;;;;3.90;1.08;;;13.90;99.90;;;;;;5031944;28;20013;-73
2024/01/24 00:54:58;;;;;;;2.15;0.90;;;13.90;99.90;;;;;;5030815;28;20017;-73
2024/01/24 00:57:24;;;;;;;1.58;0.60;;;14.00;99.90;;;;;;5031137;28;20211;-73
2024/01/24 00:59:50;;;;;;;3.33;1.40;;;14.00;99.90;;;;;;5030499;28;20395;-73
2024/01/24 01:02:16;;;;;;;3.15;0.95;;;14.00;99.90;;;;;;5031801;28;20026;-73
2024/01/24 01:04:43;;;;;;;4.18;0.90;;;14.00;99.90;;;;;;5030924;28;20029;-72
2024/01/24 01:07:12;;;;;;;2.65;0.93;;;14.00;99.90;;;;;;5031323;28;20104;-73
2024/01/24 01:09:37;;;;;;;3.28;1.05;;;14.10;99.90;;;;;;5021637;28;20034;-73
2024/01/24 01:12:03;;;;;;;5.13;0.95;;;14.10;99.90;;;;;;5030930;28;20425;-73
2024/01/24 01:14:29;;;;;;;2.42;0.98;;;14.10;99.90;;;;;;5032019;28;20055;-73
2024/01/24 01:16:55;;;;;;;2.72;0.90;;;14.10;99.90;;;;;;5030519;28;20397;-72
2024/01/24 01:19:20;;;;;;;2.00;1.00;;;14.00;99.90;;;;;;5029706;28;20038;-73
2024/01/24 01:21:46;;;;;;;5.55;1.70;;;14.10;99.90;;;;;;5031055;28;20159;-74
2024/01/24 01:24:12;;;;;;;2.67;0.80;;;14.10;99.90;;;;;;5031637;28;20481;-73
2024/01/24 01:26:37;;;;;;;3.30;1.08;;;14.00;99.90;;;;;;5030897;28;20502;-74
2024/01/24 01:29:03;;;;;;;2.45;1.23;;;14.00;99.90;;;;;;5031345;28;20410;-73
2024/01/24 01:31:29;;;;;;;3.25;1.15;;;14.10;99.90;;;;;;5030457;28;20720;-73
2024/01/24 01:33:55;;;;;;;1.77;0.90;;;14.00;99.90;;;;;;5027258;28;20196;-73
2024/01/24 01:36:21;;;;;;;2.55;1.20;;;14.10;99.90;;;;;;5030591;28;20044;-73
2024/01/24 01:38:47;;;;;;;1.90;0.90;;;14.10;99.90;;;;;;5026647;28;20101;-73
2024/01/24 01:41:12;;;;;;;3.20;1.40;;;14.10;99.90;;;;;;5012812;28;20037;-73
2024/01/24 01:43:38;;;;;;;1.48;0.90;;;14.10;99.90;;;;;;5030558;28;20470;-74
2024/01/24 01:46:10;;;;;;;2.60;1.30;;;13.90;99.90;;;;;;5031524;28;20026;-73
2024/01/24 01:48:37;;;;;;;2.03;1.08;;;13.90;99.90;;;;;;5030219;28;20032;-74
2024/01/24 01:51:03;;;;;;;1.92;0.93;;;13.90;99.90;;;;;;5031445;28;20030;-73
2024/01/24 01:53:29;;;;;;;1.42;1.00;;;13.90;99.90;;;;;;5031453;28;20172;-73
2024/01/24 01:55:55;;;;;;;1.45;1.15;;;13.90;99.90;;;;;;5031287;28;20025;-73
2024/01/24 01:58:22;;;;;;;2.50;0.93;;;13.90;99.90;;;;;;5030951;28;20033;-73
2024/01/24 02:00:49;;;;;;;3.15;1.30;;;13.90;99.90;;;;;;5030533;28;20379;-73
2024/01/24 02:03:15;;;;;;;1.65;1.27;;;13.80;99.90;;;;;;5030901;28;20026;-73
2024/01/24 02:05:42;;;;;;;2.50;1.67;;;13.80;99.90;;;;;;5030635;28;20495;-72
2024/01/24 02:08:08;;;;;;;2.60;1.38;;;13.80;99.90;;;;;;5034294;28;20022;-72
2024/01/24 02:10:34;;;;;;;1.45;1.10;;;13.70;99.90;;;;;;5018293;28;20033;-73
2024/01/24 02:13:00;;;;;;;1.98;1.35;;;13.60;99.90;;;;;;5033601;28;20057;-72
2024/01/24 02:15:28;;;;;;;3.78;1.10;;;13.60;99.90;;;;;;5033066;28;20033;-73
2024/01/24 02:17:54;;;;;;;4.60;1.48;;;13.60;99.90;;;;;;5034721;28;20029;-74
2024/01/24 02:20:21;;;;;;;1.08;1.08;;;13.60;99.90;;;;;;5034425;28;20041;-73
2024/01/24 02:22:47;;;;;;;3.00;1.30;;;13.60;99.90;;;;;;5035105;28;20041;-73
2024/01/24 02:25:12;;;;;;;2.03;1.40;;;13.50;99.90;;;;;;5034168;28;20029;-74
2024/01/24 02:27:38;;;;;;;1.38;1.10;;;13.60;99.90;;;;;;5034223;28;20462;-72
2024/01/24 02:30:05;;;;;;;2.72;1.50;;;13.60;99.90;;;;;;5035032;28;20794;-74
2024/01/24 02:32:30;;;;;;;3.20;1.35;;;13.50;99.90;;;;;;5032513;28;20052;-73
2024/01/24 02:34:56;;;;;;;1.65;1.17;;;13.50;99.90;;;;;;5017535;28;20849;-72
2024/01/24 02:37:22;;;;;;;3.15;1.30;;;13.50;99.90;;;;;;5014673;28;20133;-73
2024/01/24 02:39:48;;;;;;;3.58;2.10;;;13.40;99.90;;;;;;5014030;28;20037;-74
2024/01/24 02:42:14;;;;;;;5.22;1.48;;;13.50;99.90;;;;;;5013878;28;20080;-72
2024/01/24 02:44:39;;;;;;;2.33;1.65;;;13.50;99.90;;;;;;5014593;28;20509;-72
2024/01/24 02:47:05;;;;;;;3.28;1.25;;;13.50;99.90;;;;;;5013791;28;20363;-75
2024/01/24 02:49:31;;;;;;;2.85;1.38;;;13.40;99.90;;;;;;5032696;28;20470;-72
2024/01/24 02:52:01;;;;;;;3.15;1.20;;;13.40;99.90;;;;;;5032219;28;20026;-74
2024/01/24 02:54:27;;;;;;;1.85;1.33;;;13.30;99.90;;;;;;5033348;28;20021;-72
2024/01/24 02:56:52;;;;;;;1.42;1.23;;;13.30;99.90;;;;;;5032632;28;20025;-76
2024/01/24 02:59:18;;;;;;;2.20;1.02;;;13.40;99.90;;;;;;5025840;28;20387;-72
2024/01/24 03:01:44;;;;;;;2.97;1.45;;;13.40;99.90;;;;;;5012661;28;20030;-77
2024/01/24 03:04:10;;;;;;;1.33;0.90;;;13.40;99.90;;;;;;5014293;28;20582;-74
2024/01/24 03:06:35;;;;;;;3.42;0.90;;;13.40;99.90;;;;;;5013564;28;20018;-74
2024/01/24 03:09:01;;;;;;;1.00;0.85;;;13.30;99.90;;;;;;5012434;28;20097;-74
2024/01/24 03:11:27;;;;;;;1.67;0.57;;;13.30;99.90;;;;;;5013472;28;20030;-74
2024/01/24 03:13:53;;;;;;;1.02;0.80;;;13.40;99.90;;;;;;5026465;28;20029;-74
2024/01/24 03:16:19;;;;;;;0.52;0.52;;;13.40;99.90;;;;;;5034625;28;20029;-75
2024/01/24 03:18:45;;;;;;;0.50;0.50;;;13.30;99.90;;;;;;5046735;28;20040;-74
2024/01/24 03:21:15;;;;;;;0.63;0.40;;;13.20;99.90;;;;;;5037943;28;20030;-74
2024/01/24 03:23:41;;;;;;;1.00;0.65;;;13.40;99.90;;;;;;5034359;28;20029;-74
2024/01/24 03:26:07;;;;;;;0.40;0.38;;;13.20;99.90;;;;;;5053184;28;20028;-73
2024/01/24 03:28:34;;;;;;;0.45;0.38;;;13.20;99.90;;;;;;5053689;28;20432;-73
2024/01/24 03:31:00;;;;;;;1.65;0.30;;;13.30;99.90;;;;;;5051022;28;20075;-72
2024/01/24 03:33:26;;;;;;;0.45;0.30;;;13.30;99.90;;;;;;5042085;28;20030;-73
2024/01/24 03:35:52;;;;;;;1.63;0.50;;;13.30;99.90;;;;;;5033387;28;20402;-74
2024/01/24 03:38:19;;;;;;;0.30;0.30;;;13.30;99.90;;;;;;5032800;28;20517;-73
2024/01/24 03:40:45;;;;;;;0.40;0.40;;;13.20;99.90;;;;;;5030429;28;20065;-73
2024/01/24 03:43:11;;;;;;;0.30;0.30;;;13.30;99.90;;;;;;5025364;28;20044;-74
2024/01/24 03:45:37;;;;;;;1.25;0.40;;;13.30;99.90;;;;;;5025212;28;20483;-73
2024/01/24 03:48:06;;;;;;;0.95;0.38;;;13.20;99.90;;;;;;5032020;28;20017;-73
2024/01/24 03:50:33;;;;;;;4.78;0.40;;;13.20;99.90;;;;;;5040851;28;20615;-73
2024/01/24 03:53:02;;;;;;;1.63;0.38;;;13.20;99.90;;;;;;5033360;28;20034;-73
2024/01/24 03:55:29;;;;;;;2.30;0.55;;;13.20;99.90;;;;;;5032119;28;20025;-73
2024/01/24 03:57:55;;;;;;;2.50;0.43;;;13.10;99.90;;;;;;5032071;28;20025;-73
2024/01/24 04:00:21;;;;;;;1.73;0.50;;;13.20;99.90;;;;;;5029975;28;20037;-74
2024/01/24 04:02:47;;;;;;;1.90;0.20;;;13.20;99.90;;;;;;5032373;28;20033;-73
2024/01/24 04:05:14;;;;;;;0.95;0.50;;;13.20;99.90;;;;;;5032768;28;20082;-73
2024/01/24 04:07:40;;;;;;;1.17;0.60;;;13.30;99.90;;;;;;5032345;28;20025;-74
2024/01/24 04:10:06;;;;;;;1.63;0.57;;;13.30;99.90;;;;;;5031688;28;20022;-73
2024/01/24 04:12:32;;;;;;;3.50;1.00;;;13.20;99.90;;;;;;5020035;28;20033;-73
2024/01/24 04:14:58;;;;;;;6.43;1.17;;;13.20;99.90;;;;;;5012978;28;20209;-72
2024/01/24 04:17:24;;;;;;;6.38;1.38;;;13.20;99.90;;;;;;5028707;28;20017;-72
2024/01/24 04:19:49;;;;;;;6.30;1.52;;;13.10;99.90;;;;;;5030346;28;20088;-72
2024/01/24 04:22:16;;;;;;;8.52;1.88;;;13.10;99.90;;;;;;5032331;28;20025;-72
2024/01/24 04:24:42;;;;;;;7.20;1.45;;;13.10;99.90;;;;;;5031999;28;20474;-71
2024/01/24 04:27:08;;;;;;;12.18;2.10;;;13.10;99.90;;;;;;5031692;28;20044;-73
2024/01/24 04:29:34;;;;;;;11.52;1.98;;;13.10;99.90;;;;;;5032528;28;20022;-73
2024/01/24 04:31:59;;;;;;;11.20;2.42;;;13.00;99.90;;;;;;5031104;28;20036;-72
2024/01/24 04:34:25;;;;;;;7.13;1.98;;;13.10;99.90;;;;;;5032491;28;20061;-73
2024/01/24 04:36:54;;;;;;;15.15;2.40;;;13.10;99.90;;;;;;5032307;28;20486;-72
2024/01/24 04:39:21;;;;;;;12.50;2.40;;;13.00;99.90;;;;;;5032791;28;20113;-72
2024/01/24 04:41:47;;;;;;;13.75;2.78;;;12.90;99.90;;;;;;5031317;28;20017;-73
2024/01/24 04:44:13;;;;;;;8.82;3.35;;;12.90;99.90;;;;;;5030363;28;20056;-72
2024/01/24 04:46:39;;;;;;;10.27;3.35;;;12.90;99.90;;;;;;5030977;28;20661;-73
2024/01/24 04:49:05;;;;;;;11.13;2.80;;;13.00;99.90;;;;;;5031482;28;20030;-73
2024/01/24 04:51:31;;;;;;;16.58;3.28;;;12.90;99.90;;;;;;5044934;28;20036;-73
2024/01/24 04:53:56;;;;;;;15.32;3.05;;;12.90;99.90;;;;;;5052118;28;20025;-73
2024/01/24 04:56:22;;;;;;;13.77;3.40;;;13.00;99.90;;;;;;5036566;28;20033;-74
2024/01/24 04:58:48;;;;;;;18.80;3.53;;;12.90;99.90;;;;;;5031593;28;20501;-75
2024/01/24 05:01:13;;;;;;;26.35;4.00;;;12.90;99.90;;;;;;5032695;28;20037;-74
2024/01/24 05:03:39;;;;;;;23.33;4.20;;;12.90;99.90;;;;;;5031095;28;20033;-74
2024/01/24 05:06:06;;;;;;;26.27;4.50;;;12.90;99.90;;;;;;5031442;28;20426;-74
2024/01/24 05:08:32;;;;;;;18.13;3.60;;;13.00;99.90;;;;;;5030235;28;20029;-74
2024/01/24 05:10:58;;;;;;;17.70;3.33;;;12.90;99.90;;;;;;5030026;28;20025;-74
2024/01/24 05:13:24;;;;;;;21.10;4.10;;;12.90;99.90;;;;;;5030174;28;20028;-74
2024/01/24 05:15:50;;;;;;;22.20;4.10;;;12.90;99.90;;;;;;5031941;28;20037;-74
2024/01/24 05:18:16;;;;;;;20.42;4.53;;;12.80;99.90;;;;;;5032018;28;20467;-74
2024/01/24 05:20:42;;;;;;;15.35;3.70;;;12.80;99.90;;;;;;5031250;28;20052;-74
2024/01/24 05:23:07;;;;;;;16.67;3.55;;;12.90;99.90;;;;;;5031901;28;20025;-74
2024/01/24 05:25:33;;;;;;;19.90;4.50;;;12.80;99.90;;;;;;5031712;28;20079;-74
2024/01/24 05:27:59;;;;;;;24.55;4.90;;;12.70;99.90;;;;;;5029965;28;20100;-74
2024/01/24 05:30:25;;;;;;;26.67;4.68;;;12.80;99.90;;;;;;5032414;28;20017;-75
2024/01/24 05:32:55;;;;;;;22.67;4.45;;;12.80;99.90;;;;;;5031899;28;20462;-74
2024/01/24 05:35:21;;;;;;;21.05;4.53;;;12.80;99.90;;;;;;5025405;28;20026;-75
2024/01/24 05:37:47;;;;;;;22.02;4.40;;;12.80;99.90;;;;;;5011464;28;20629;-74
2024/01/24 05:40:13;;;;;;;20.23;4.00;;;12.80;99.90;;;;;;5011139;28;20103;-74
2024/01/24 05:42:38;;;;;;;24.92;4.70;;;12.80;99.90;;;;;;5014998;28;20029;-74
2024/01/24 05:45:05;;;;;;;24.55;4.60;;;12.70;99.90;;;;;;5015496;28;20420;-75
2024/01/24 05:47:31;;;;;;;25.48;6.10;;;12.70;99.90;;;;;;5015348;28;20033;-74
2024/01/24 05:49:58;;;;;;;23.55;4.53;;;12.60;99.90;;;;;;5015086;28;20050;-74
2024/01/24 05:52:24;;;;;;;22.67;4.55;;;12.70;99.90;;;;;;5016018;28;20390;-74
2024/01/24 05:54:50;;;;;;;24.63;4.93;;;12.70;99.90;;;;;;5015525;28;20397;-74
2024/01/24 05:57:16;;;;;;;30.13;5.45;;;12.70;99.90;;;;;;5035533;28;20022;-75
2024/01/24 05:59:41;;;;;;;30.20;5.22;;;12.70;99.90;;;;;;5033519;28;20046;-75
2024/01/24 06:02:07;;;;;;;31.48;6.78;;;12.70;99.90;;;;;;5035463;28;20487;-75
2024/01/24 06:04:33;;;;;;;31.17;5.63;;;12.60;99.90;;;;;;5032789;28;20033;-74
2024/01/24 06:07:00;;;;;;;26.60;5.47;;;12.60;99.90;;;;;;5033068;28;20026;-74
2024/01/24 06:09:29;;;;;;;23.25;6.43;;;12.60;99.90;;;;;;5033439;28;20018;-74
2024/01/24 06:11:54;;;;;;;39.35;6.55;;;12.60;99.90;;;;;;5035369;28;20053;-75
2024/01/24 06:14:20;;;;;;;33.58;6.07;;;12.60;99.90;;;;;;5033989;28;20053;-75
2024/01/24 06:16:46;;;;;;;31.25;6.57;;;12.60;99.90;;;;;;5033072;28;20018;-75
2024/01/24 06:19:12;;;;;;;38.35;6.47;;;12.60;99.90;;;;;;5034782;28;20117;-75
2024/01/24 06:21:38;;;;;;;34.58;6.40;;;12.60;99.90;;;;;;5034627;28;20025;-75
2024/01/24 06:24:06;;;;;;;35.47;6.80;;;12.50;99.90;;;;;;5032090;28;20025;-74
2024/01/24 06:26:32;;;;;;;31.65;6.28;;;12.50;99.90;;;;;;5033398;28;20104;-74
2024/01/24 06:28:58;;;;;;;35.97;6.93;;;12.50;99.90;;;;;;5034742;28;20121;-75
2024/01/24 06:31:23;;;;;;;27.80;5.63;;;12.50;99.90;;;;;;5034438;28;20025;-74
2024/01/24 06:33:50;;;;;;;41.00;8.65;;;12.40;99.90;;;;;;5032938;28;20549;-75
2024/01/24 06:36:16;;;;;;;30.80;6.80;;;12.50;99.90;;;;;;5033978;28;20056;-75
2024/01/24 06:38:42;;;;;;;30.00;6.72;;;12.50;99.90;;;;;;5031401;28;20054;-75
2024/01/24 06:41:07;;;;;;;33.80;7.20;;;12.50;99.90;;;;;;5022868;28;20478;-75
2024/01/24 06:43:35;;;;;;;37.13;6.45;;;12.50;99.90;;;;;;5034265;28;20025;-75
2024/01/24 06:46:02;;;;;;;38.38;7.28;;;12.50;99.90;;;;;;5034324;28;20026;-75
2024/01/24 06:48:28;;;;;;;32.15;6.60;;;12.50;99.90;;;;;;5033182;28;20048;-75
2024/01/24 06:50:54;;;;;;;37.10;6.85;;;12.40;99.90;;;;;;5027570;28;20504;-76
2024/01/24 06:53:20;;;;;;;34.53;6.38;;;12.50;99.90;;;;;;5028040;28;20035;-75
2024/01/24 06:55:46;;;;;;;39.55;7.22;;;12.40;99.90;;;;;;5014580;28;20026;-75
2024/01/24 06:58:12;;;;;;;43.42;8.07;;;12.40;99.90;;;;;;5013873;28;20034;-75
2024/01/24 07:00:38;;;;;;;36.00;6.55;;;12.40;99.90;;;;;;5013612;28;20069;-74
2024/01/24 07:03:04;;;;;;;38.80;7.07;;;12.40;99.90;;;;;;5014543;28;20053;-75
2024/01/24 07:05:30;;;;;;;39.78;7.78;;;12.40;99.90;;;;;;5014316;28;20463;-74
2024/01/24 07:07:57;;;;;;;35.33;6.78;;;12.50;99.90;;;;;;5019303;28;20034;-74
2024/01/24 07:10:23;;;;;;;32.33;7.00;;;12.50;99.90;;;;;;5019511;28;20026;-74
2024/01/24 07:12:49;;;;;;;37.97;8.00;;;12.50;99.90;;;;;;5014449;28;20103;-74
2024/01/24 07:15:16;;;;;;;47.00;7.57;;;12.50;99.90;;;;;;5013637;28;20470;-75
2024/01/24 07:17:41;;;;;;;45.10;8.10;;;12.60;99.90;;;;;;5030462;28;20025;-75
2024/01/24 07:20:08;;;;;;;34.88;5.93;;;12.60;99.90;;;;;;5032518;28;20525;-75
2024/01/24 07:22:33;;;;;;;35.35;7.90;;;12.60;99.90;;;;;;5028772;28;20083;-75
2024/01/24 07:24:59;;;;;;;43.28;7.07;;;12.60;99.90;;;;;;5028582;28;20140;-76
2024/01/24 07:27:25;;;;;;;40.45;8.73;;;12.60;99.90;;;;;;5031080;28;20063;-75
2024/01/24 07:29:50;;;;;;;34.90;7.88;;;12.50;99.90;;;;;;5033650;28;20037;-76
2024/01/24 07:32:16;;;;;;;38.83;7.63;;;12.50;99.90;;;;;;5033580;28;20033;-76
2024/01/24 07:34:43;;;;;;;40.15;7.85;;;12.50;99.90;;;;;;5033253;28;20025;-76
2024/01/24 07:37:09;;;;;;;35.35;7.68;;;12.50;99.90;;;;;;5031351;28;20029;-76
2024/01/24 07:39:35;;;;;;;40.55;7.53;;;12.50;99.90;;;;;;5033751;28;20482;-76
2024/01/24 07:42:01;;;;;;;40.88;7.55;;;12.50;99.90;;;;;;5032547;28;20021;-74
2024/01/24 07:44:26;;;;;;;36.97;7.60;;;12.50;99.90;;;;;;5033614;28;20049;-76
2024/01/24 07:46:53;;;;;;;29.45;6.85;;;12.40;99.90;;;;;;5031630;28;20135;-76
2024/01/24 07:49:19;;;;;;;43.08;8.18;;;12.40;99.90;;;;;;5012630;28;20118;-75
2024/01/24 07:51:46;;;;;;;36.60;8.18;;;12.40;99.90;;;;;;5012215;28;20097;-76
2024/01/24 07:54:13;;;;;;;40.47;8.75;;;12.40;99.90;;;;;;5015602;28;20029;-75
2024/01/24 07:56:39;;;;;;;39.00;7.10;;;12.40;99.90;;;;;;5013270;28;20475;-74
2024/01/24 07:59:05;;;;;;;50.63;9.05;;;12.30;99.90;;;;;;5011172;28;20121;-74
2024/01/24 08:01:31;;;;;;;52.58;8.45;;;12.40;99.90;;;;;;5013186;28;20030;-76
2024/01/24 08:03:58;;;;;;;44.15;8.20;;;12.30;99.90;;;;;;5009615;28;20639;-75
2024/01/24 08:06:24;;;;;;;43.47;8.88;;;12.20;99.90;;;;;;5012192;28;20034;-75
2024/01/24 08:08:50;;;;;;;52.70;10.05;;;12.30;99.90;;;;;;5012444;28;20021;-75
2024/01/24 08:11:17;;;;;;;40.03;8.52;;;12.40;99.90;;;;;;5012860;28;20101;-74
2024/01/24 08:13:43;;;;;;;38.60;9.00;;;12.40;99.90;;;;;;5012907;28;20060;-74
2024/01/24 08:16:10;;;;;;;44.47;8.30;;;12.30;99.90;;;;;;5013008;28;20029;-76
2024/01/24 08:18:36;;;;;;;43.58;8.35;;;12.30;99.90;;;;;;5019433;28;20021;-76
2024/01/24 08:21:01;;;;;;;49.45;9.95;;;12.30;99.90;;;;;;5028216;28;20471;-76
2024/01/24 08:23:27;;;;;;;41.83;8.32;;;12.40;99.90;;;;;;5024718;28;20504;-75
2024/01/24 08:25:53;;;;;;;41.10;7.95;;;12.30;99.90;;;;;;5017851;28;20040;-75
2024/01/24 08:28:18;;;;;;;44.90;8.85;;;12.30;99.90;;;;;;5020170;28;20386;-75
2024/01/24 08:30:44;;;;;;;44.63;9.02;;;12.30;99.90;;;;;;5014684;28;20018;-75
2024/01/24 08:33:10;;;;;;;35.30;8.35;;;12.50;99.90;;;;;;5025055;28;20029;-75
2024/01/24 08:35:36;;;;;;;45.63;8.90;;;12.40;99.90;;;;;;5021145;28;20048;-75
2024/01/24 08:38:03;;;;;;;45.33;8.55;;;12.30;99.90;;;;;;5020817;28;20022;-75
2024/01/24 08:40:29;;;;;;;39.55;8.57;;;12.40;99.90;;;;;;5023098;28;20052;-75
2024/01/24 08:42:54;;;;;;;38.38;7.80;;;12.30;99.90;;;;;;5022135;28;20471;-75
2024/01/24 08:45:20;;;;;;;40.03;8.50;;;12.40;99.90;;;;;;5032429;28;20434;-75
2024/01/24 08:47:46;;;;;;;38.35;8.98;;;12.40;99.90;;;;;;5031667;28;20021;-74
2024/01/24 08:50:12;;;;;;;42.70;8.48;;;12.30;99.90;;;;;;5032365;28;20489;-75
2024/01/24 08:52:38;;;;;;;50.05;8.32;;;12.40;99.90;;;;;;5031145;28;20020;-75
2024/01/24 08:55:07;;;;;;;45.20;8.75;;;12.40;99.90;;;;;;5031907;28;20056;-75
2024/01/24 08:57:32;;;;;;;46.35;7.65;;;12.30;99.90;;;;;;5028335;28;20490;-76
2024/01/24 08:59:58;;;;;;;48.53;9.30;;;12.40;99.90;;;;;;5022779;28;20063;-76
2024/01/24 09:02:25;;;;;;;48.30;8.60;;;12.40;99.90;;;;;;5019967;28;20309;-75
2024/01/24 09:04:52;;;;;;;39.80;8.30;;;12.40;99.90;;;;;;5020409;28;20061;-75
2024/01/24 09:07:20;;;;;;;34.47;8.27;;;12.30;99.90;;;;;;5022055;28;20390;-76
2024/01/24 09:09:49;;;;;;;55.42;9.40;;;12.40;99.90;;;;;;5032059;28;20029;-76
2024/01/24 09:12:15;;;;;;;50.58;8.80;;;12.30;99.90;;;;;;5032202;28;20498;-76
2024/01/24 09:14:41;;;;;;;40.95;8.20;;;12.40;99.90;;;;;;5023545;28;20030;-77
2024/01/24 09:17:09;;;;;;;45.90;8.45;;;12.40;99.90;;;;;;5015872;28;20033;-77
2024/01/24 09:19:35;;;;;;;45.58;9.15;;;12.40;99.90;;;;;;5016221;28;20064;-76
2024/01/24 09:22:01;;;;;;;39.85;9.25;;;12.40;99.90;;;;;;5022039;28;20022;-76
2024/01/24 09:24:27;;;;;;;43.50;9.05;;;12.40;99.90;;;;;;5021769;28;20399;-77
2024/01/24 09:26:55;;;;;;;49.10;9.90;;;12.30;99.90;;;;;;5030245;28;20018;-74
2024/01/24 09:29:23;;;;;;;44.92;8.88;;;12.40;99.90;;;;;;5023702;28;20048;-77
2024/01/24 09:31:49;;;;;;;48.15;8.25;;;12.40;99.90;;;;;;5022939;28;20025;-78
2024/01/24 09:34:16;;;;;;;47.25;9.45;;;12.50;99.90;;;;;;5019614;28;20608;-77
2024/01/24 09:36:42;;;;;;;46.22;10.13;;;12.40;99.90;;;;;;5005901;28;20029;-78
2024/01/24 09:39:09;;;;;;;54.55;9.35;;;12.40;99.90;;;;;;5034573;28;20041;-76
2024/01/24 09:41:41;;;;;;;38.63;9.20;;;12.40;99.90;;;;;;5030937;28;20033;-77
2024/01/24 09:44:14;;;;;;;42.10;9.40;;;12.40;99.90;;;;;;5034089;28;20017;-78
2024/01/24 09:46:43;;;;;;;;;;;12.40;99.90;;;;;;5036830;28;20025;-77
2024/01/24 09:49:10;;;;;;;40.90;8.70;;;12.40;99.90;;;;;;5035132;28;20370;-78
2024/01/24 09:51:37;;;;;;;45.63;8.93;;;12.50;99.90;;;;;;5032713;28;20026;-78
2024/01/24 09:54:07;;;;;;;47.83;9.23;;;12.50;99.90;;;;;;5033132;28;20146;-80
2024/01/24 09:56:37;;;;;;;49.70;8.65;;;12.50;99.90;;;;;;5029602;28;20017;-78
2024/01/24 09:59:04;;;;;;;52.53;9.90;;;12.60;99.90;;;;;;5033826;28;20044;-78
2024/01/24 10:01:33;;;;;;;50.72;9.45;;;12.50;99.90;;;;;;5033924;28;20702;-78
2024/01/24 10:04:13;;;;;;;42.10;8.52;;;12.60;99.90;;;;;;5030910;28;22602;-77
2024/01/24 10:06:39;;;;;;;50.75;9.68;;;12.50;99.90;;;;;;5027753;28;20399;-78
2024/01/24 10:09:05;;;;;;;48.50;9.73;;;12.60;99.90;;;;;;5031049;28;20020;-77
2024/01/24 10:11:31;;;;;;;52.30;9.38;;;12.50;99.90;;;;;;5032628;28;20052;-79
2024/01/24 10:13:57;;;;;;;47.10;8.80;;;12.50;99.90;;;;;;5030851;28;20420;-78
2024/01/24 10:16:27;;;;;;;51.25;9.13;;;12.50;99.90;;;;;;5030363;28;20026;-80
2024/01/24 10:18:56;;;;;;;38.90;8.38;;;12.50;99.90;;;;;;5031069;28;20025;-78
2024/01/24 10:21:22;;;;;;;46.38;9.30;;;12.50;99.90;;;;;;5028013;28;20064;-74
2024/01/24 10:23:49;;;;;;;45.22;9.45;;;12.60;99.90;;;;;;5030896;28;20013;-73
2024/01/24 10:26:18;;;;;;;46.95;9.05;;;12.60;99.90;;;;;;5029903;28;20025;-76
2024/01/24 10:28:44;;;;;;;48.05;9.20;;;12.50;99.90;;;;;;5033663;28;20037;-73
2024/01/24 10:31:09;;;;;;;32.35;7.43;;;12.50;99.90;;;;;;5030905;28;20067;-73
2024/01/24 10:33:35;;;;;;;36.35;8.00;;;12.60;99.90;;;;;;5031221;28;20538;-77
2024/01/24 10:36:01;;;;;;;44.92;8.88;;;12.70;99.90;;;;;;5031879;28;20025;-77
2024/01/24 10:38:31;;;;;;;50.17;8.43;;;12.70;99.90;;;;;;5035367;28;20052;-76
2024/01/24 10:41:01;;;;;;;47.17;8.43;;;12.70;99.90;;;;;;5028626;28;20116;-76
2024/01/24 10:43:28;;;;;;;46.95;8.40;;;12.80;99.90;;;;;;5034491;28;20055;-75
2024/01/24 10:45:55;;;;;;;47.25;8.85;;;12.80;99.90;;;;;;5031807;28;20033;-77
2024/01/24 10:48:21;;;;;;;36.88;9.65;;;12.70;99.90;;;;;;5028506;28;20037;-76
2024/01/24 10:50:47;;;;;;;44.72;8.60;;;12.70;99.90;;;;;;5032460;28;20033;-78
2024/01/24 10:53:14;;;;;;;44.97;9.93;;;12.70;99.90;;;;;;5029511;28;20071;-75
2024/01/24 10:55:42;;;;;;;46.50;9.05;;;12.70;99.90;;;;;;5034819;28;21465;-75
2024/01/24 10:58:11;;;;;;;42.97;8.77;;;12.90;99.90;;;;;;5030772;28;20092;-75
2024/01/24 11:00:41;;;;;;;35.65;8.20;;;12.90;99.90;;;;;;5031876;28;20033;-74
2024/01/24 11:03:07;;;;;;;45.65;8.93;;;12.90;99.90;;;;;;5030369;28;20041;-74
2024/01/24 11:05:41;;;;;;;37.53;7.40;;;12.90;99.90;;;;;;5027073;28;20053;-75
2024/01/24 11:08:23;;;;;;;38.55;7.32;;;12.90;99.90;;;;;;5030769;28;20096;-76
2024/01/24 11:10:49;;;;;;;34.88;7.22;;;12.90;99.90;;;;;;5030340;28;20076;-76
2024/01/24 11:13:18;;;;;;;52.70;8.57;;;12.80;99.90;;;;;;5029797;28;20018;-75
2024/01/24 11:15:46;;;;;;;43.88;8.85;;;12.90;99.90;;;;;;5027406;28;20416;-74
2024/01/24 11:18:32;;;;;;;45.10;7.93;;;12.90;99.90;;;;;;5034578;28;20105;-74
2024/01/24 11:21:00;;;;;;;42.38;8.50;;;12.90;99.90;;;;;;5027651;28;20041;-74
2024/01/24 11:23:44;;;;;;;43.53;8.38;;;12.90;99.90;;;;;;5028491;28;20522;-76
2024/01/24 11:26:30;;;;;;;41.65;8.63;;;12.90;99.90;;;;;;5033792;28;20044;-77
2024/01/24 11:29:06;;;;;;;38.95;7.75;;;13.00;99.90;;;;;;5027439;28;20112;-76
2024/01/24 11:31:40;;;;;;;41.92;8.10;;;13.00;99.90;;;;;;5026054;28;20558;-75
2024/01/24 11:34:13;;;;;;;37.25;8.43;;;13.00;99.90;;;;;;5028826;28;20125;-75
2024/01/24 11:36:44;;;;;;;38.38;8.50;;;13.10;99.90;;;;;;5027529;28;20022;-77
2024/01/24 11:39:37;;;;;;;30.55;7.68;;;13.20;99.90;;;;;;5034569;28;20033;-77
2024/01/24 11:42:36;;;;;;;45.22;8.52;;;13.20;99.90;;;;;;5035639;28;20041;-75
2024/01/24 11:45:15;;;;;;;39.22;7.05;;;13.10;99.90;;;;;;5029687;28;20038;-74
2024/01/24 11:47:41;;;;;;;40.35;7.95;;;13.10;99.90;;;;;;5028273;28;20029;-74
2024/01/24 11:50:08;;;;;;;40.33;8.25;;;13.20;99.90;;;;;;5030613;28;20379;-74
2024/01/24 11:52:34;;;;;;;36.88;7.68;;;13.30;99.90;;;;;;5030035;28;20036;-75
2024/01/24 11:55:00;;;;;;;38.83;8.02;;;13.20;99.90;;;;;;5030274;28;20029;-74
2024/01/24 11:57:27;;;;;;;39.92;8.52;;;13.20;99.90;;;;;;5029106;28;20036;-77
2024/01/24 11:59:53;;;;;;;36.63;6.93;;;13.10;99.90;;;;;;5026474;28;20122;-76
2024/01/24 12:02:19;;;;;;;31.75;7.80;;;13.20;99.90;;;;;;5026499;28;20076;-74
2024/01/24 12:04:51;;;;;;;34.65;6.80;;;13.20;99.90;;;;;;5029577;28;20014;-76
2024/01/24 12:07:18;;;;;;;41.13;8.55;;;13.20;99.90;;;;;;5030040;28;20121;-77
2024/01/24 12:09:44;;;;;;;31.92;7.65;;;13.20;99.90;;;;;;5031810;28;20021;-76
2024/01/24 12:12:11;;;;;;;38.95;7.18;;;13.30;99.90;;;;;;5035507;28;20508;-76
2024/01/24 12:14:38;;;;;;;34.22;8.27;;;13.30;99.90;;;;;;5027440;28;20415;-76
2024/01/24 12:17:03;;;;;;;32.17;6.88;;;13.40;99.90;;;;;;5029839;28;20021;-77
2024/01/24 12:19:30;;;;;;;40.72;7.78;;;13.30;99.90;;;;;;5027742;28;20048;-77
2024/01/24 12:21:58;;;;;;;32.45;6.80;;;13.40;99.90;;;;;;5031759;28;20053;-77
2024/01/24 12:24:24;;;;;;;26.83;7.03;;;13.30;99.90;;;;;;5030451;28;20025;-78
2024/01/24 12:26:50;;;;;;;29.52;5.93;;;13.30;99.90;;;;;;5025997;28;20029;-77
2024/01/24 12:29:16;;;;;;;31.92;6.95;;;13.40;99.90;;;;;;5029248;28;20033;-77
2024/01/24 12:31:45;;;;;;;33.15;6.40;;;13.40;99.90;;;;;;5031117;28;20018;-76
2024/01/24 12:34:14;;;;;;;35.65;6.75;;;13.40;99.90;;;;;;5032645;28;20028;-78
2024/01/24 12:36:43;;;;;;;28.77;6.18;;;13.40;99.90;;;;;;5025979;28;20049;-75
2024/01/24 12:39:09;;;;;;;29.73;7.25;;;13.40;99.90;;;;;;5029989;28;20038;-77